PBD9710 UGTB-URSS
Flight info
| Callsign | PBD9710 |
|---|---|
| Flight time | 0h 58m |
| Altitude | 36000 |
| Route | DCT LAPTO N82 TAFIK G914 NAMEN G926 GUBOR G487 BINOL DCT |
| Aircraft | B738/M-SDE2E3FGHIRWXY/LB1 |
Departure
| Time | 2026-05-06 18:23 |
|---|---|
| Airport | Tbilisi International Airport (UGTB) |
Arrival
| Time | 2026-05-06 19:21 |
|---|---|
| Airport | Sochi International Airport (URSS) |
| Time | Latitude | Longitude | Altitude | Speed | Heading |
|---|---|---|---|---|---|
| 2026-05-06 17:17 | 41.66899 | 44.96016 | 1560 ft | 0 kts | 223° |
| 2026-05-06 18:09 | 41.66900 | 44.96016 | 1560 ft | 0 kts | 223° |
| 2026-05-06 18:09 | 41.66899 | 44.96016 | 1560 ft | 0 kts | 223° |
| 2026-05-06 18:09 | 41.66906 | 44.96027 | 1561 ft | 2 kts | 229° |
| 2026-05-06 18:10 | 41.66918 | 44.96041 | 1561 ft | 2 kts | 220° |
| 2026-05-06 18:10 | 41.66928 | 44.96054 | 1561 ft | 2 kts | 223° |
| 2026-05-06 18:10 | 41.66935 | 44.96063 | 1562 ft | 1 kts | 223° |
| 2026-05-06 18:10 | 41.66947 | 44.96074 | 1562 ft | 2 kts | 198° |
| 2026-05-06 18:11 | 41.66962 | 44.96077 | 1562 ft | 2 kts | 176° |
| 2026-05-06 18:11 | 41.66971 | 44.96075 | 1562 ft | 2 kts | 161° |
| 2026-05-06 18:11 | 41.66986 | 44.96064 | 1563 ft | 0 kts | 136° |
| 2026-05-06 18:11 | 41.66990 | 44.96058 | 1563 ft | 0 kts | 133° |
| 2026-05-06 18:12 | 41.66990 | 44.96057 | 1563 ft | 0 kts | 133° |
| 2026-05-06 18:14 | 41.66986 | 44.96066 | 1563 ft | 5 kts | 127° |
| 2026-05-06 18:14 | 41.66952 | 44.96101 | 1562 ft | 6 kts | 146° |
| 2026-05-06 18:14 | 41.66913 | 44.96146 | 1561 ft | 8 kts | 134° |
| 2026-05-06 18:15 | 41.66870 | 44.96206 | 1560 ft | 9 kts | 133° |
| 2026-05-06 18:15 | 41.66823 | 44.96274 | 1559 ft | 10 kts | 132° |
| 2026-05-06 18:15 | 41.66769 | 44.96352 | 1557 ft | 12 kts | 133° |
| 2026-05-06 18:15 | 41.66703 | 44.96424 | 1555 ft | 12 kts | 164° |
| 2026-05-06 18:16 | 41.66615 | 44.96409 | 1553 ft | 13 kts | 190° |
| 2026-05-06 18:16 | 41.66512 | 44.96376 | 1548 ft | 16 kts | 195° |
| 2026-05-06 18:16 | 41.66416 | 44.96343 | 1545 ft | 8 kts | 194° |
| 2026-05-06 18:16 | 41.66351 | 44.96320 | 1543 ft | 10 kts | 194° |
| 2026-05-06 18:17 | 41.66271 | 44.96296 | 1540 ft | 12 kts | 188° |
| 2026-05-06 18:17 | 41.66180 | 44.96313 | 1538 ft | 13 kts | 158° |
| 2026-05-06 18:17 | 41.66101 | 44.96392 | 1535 ft | 15 kts | 138° |
| 2026-05-06 18:17 | 41.66025 | 44.96487 | 1533 ft | 15 kts | 136° |
| 2026-05-06 18:18 | 41.65966 | 44.96565 | 1531 ft | 11 kts | 134° |
| 2026-05-06 18:18 | 41.65897 | 44.96602 | 1530 ft | 11 kts | 196° |
| 2026-05-06 18:18 | 41.65888 | 44.96598 | 1529 ft | 0 kts | 200° |
| 2026-05-06 18:21 | 41.65883 | 44.96596 | 1529 ft | 3 kts | 201° |
| 2026-05-06 18:21 | 41.65860 | 44.96573 | 1529 ft | 4 kts | 233° |
| 2026-05-06 18:22 | 41.65844 | 44.96531 | 1528 ft | 6 kts | 252° |
| 2026-05-06 18:22 | 41.65852 | 44.96460 | 1529 ft | 7 kts | 306° |
| 2026-05-06 18:22 | 41.65884 | 44.96416 | 1530 ft | 6 kts | 315° |
| 2026-05-06 18:22 | 41.65971 | 44.96304 | 1532 ft | 44 kts | 316° |
| 2026-05-06 18:23 | 41.66365 | 44.95805 | 1542 ft | 108 kts | 317° |
| 2026-05-06 18:23 | 41.67053 | 44.94947 | 1568 ft | 158 kts | 317° |
| 2026-05-06 18:23 | 41.67882 | 44.93884 | 1931 ft | 173 kts | 315° |
| 2026-05-06 18:23 | 41.68734 | 44.92736 | 2593 ft | 178 kts | 317° |
| 2026-05-06 18:24 | 41.69663 | 44.91630 | 3237 ft | 185 kts | 319° |
| 2026-05-06 18:24 | 41.70627 | 44.90490 | 3837 ft | 188 kts | 318° |
| 2026-05-06 18:24 | 41.71592 | 44.89307 | 4449 ft | 191 kts | 317° |
| 2026-05-06 18:24 | 41.72567 | 44.88090 | 5005 ft | 197 kts | 317° |
| 2026-05-06 18:25 | 41.73601 | 44.86798 | 5443 ft | 210 kts | 317° |
| 2026-05-06 18:25 | 41.74682 | 44.85449 | 5866 ft | 222 kts | 317° |
| 2026-05-06 18:25 | 41.75863 | 44.84005 | 6295 ft | 235 kts | 322° |
| 2026-05-06 18:25 | 41.77272 | 44.82802 | 6724 ft | 246 kts | 333° |
| 2026-05-06 18:26 | 41.78832 | 44.81784 | 7146 ft | 258 kts | 334° |
| 2026-05-06 18:26 | 41.80481 | 44.80689 | 7573 ft | 270 kts | 333° |
| 2026-05-06 18:26 | 41.82168 | 44.79494 | 8229 ft | 277 kts | 331° |
| 2026-05-06 18:26 | 41.83863 | 44.78252 | 8978 ft | 281 kts | 330° |
| 2026-05-06 18:27 | 41.85571 | 44.76989 | 9735 ft | 285 kts | 330° |
| 2026-05-06 18:27 | 41.87296 | 44.75708 | 10469 ft | 290 kts | 330° |
| 2026-05-06 18:27 | 41.89114 | 44.74360 | 10961 ft | 306 kts | 330° |
| 2026-05-06 18:27 | 41.91024 | 44.72946 | 11468 ft | 321 kts | 330° |
| 2026-05-06 18:28 | 41.93003 | 44.71481 | 11928 ft | 335 kts | 330° |
| 2026-05-06 18:28 | 41.95074 | 44.69949 | 12562 ft | 345 kts | 329° |
| 2026-05-06 18:28 | 41.97183 | 44.68390 | 13338 ft | 350 kts | 329° |
| 2026-05-06 18:28 | 41.99313 | 44.66815 | 14138 ft | 354 kts | 330° |
| 2026-05-06 18:29 | 42.01477 | 44.65214 | 14946 ft | 359 kts | 329° |
| 2026-05-06 18:29 | 42.03663 | 44.63595 | 15756 ft | 363 kts | 329° |
| 2026-05-06 18:29 | 42.05891 | 44.61942 | 16571 ft | 367 kts | 330° |
| 2026-05-06 18:29 | 42.08130 | 44.60279 | 17308 ft | 373 kts | 329° |
| 2026-05-06 18:30 | 42.10408 | 44.58584 | 18046 ft | 377 kts | 330° |
| 2026-05-06 18:30 | 42.12715 | 44.56868 | 18777 ft | 382 kts | 330° |
| 2026-05-06 18:30 | 42.15031 | 44.55143 | 19498 ft | 386 kts | 330° |
| 2026-05-06 18:30 | 42.17390 | 44.53387 | 20204 ft | 390 kts | 330° |
| 2026-05-06 18:31 | 42.19769 | 44.51614 | 20897 ft | 394 kts | 330° |
| 2026-05-06 18:31 | 42.22184 | 44.49815 | 21592 ft | 397 kts | 330° |
| 2026-05-06 18:31 | 42.24568 | 44.48037 | 22216 ft | 402 kts | 330° |
| 2026-05-06 18:31 | 42.27022 | 44.46204 | 22865 ft | 406 kts | 330° |
| 2026-05-06 18:32 | 42.29519 | 44.44336 | 23503 ft | 409 kts | 330° |
| 2026-05-06 18:32 | 42.31999 | 44.42479 | 24099 ft | 413 kts | 330° |
| 2026-05-06 18:32 | 42.34535 | 44.40579 | 24650 ft | 418 kts | 330° |
| 2026-05-06 18:32 | 42.37082 | 44.38667 | 25207 ft | 422 kts | 330° |
| 2026-05-06 18:33 | 42.39629 | 44.36755 | 25745 ft | 426 kts | 330° |
| 2026-05-06 18:33 | 42.42255 | 44.34781 | 26275 ft | 430 kts | 329° |
| 2026-05-06 18:33 | 42.44865 | 44.32818 | 26785 ft | 434 kts | 329° |
| 2026-05-06 18:33 | 42.47514 | 44.30821 | 27194 ft | 441 kts | 330° |
| 2026-05-06 18:34 | 42.50201 | 44.28796 | 27655 ft | 445 kts | 329° |
| 2026-05-06 18:34 | 42.52892 | 44.26768 | 28252 ft | 445 kts | 329° |
| 2026-05-06 18:34 | 42.55592 | 44.24731 | 28720 ft | 449 kts | 329° |
| 2026-05-06 18:34 | 42.58315 | 44.22669 | 29073 ft | 455 kts | 329° |
| 2026-05-06 18:35 | 42.61108 | 44.20602 | 29589 ft | 458 kts | 332° |
| 2026-05-06 18:35 | 42.64004 | 44.18802 | 29987 ft | 462 kts | 339° |
| 2026-05-06 18:35 | 42.67049 | 44.17424 | 30387 ft | 466 kts | 344° |
| 2026-05-06 18:35 | 42.70188 | 44.16327 | 31033 ft | 463 kts | 347° |
| 2026-05-06 18:36 | 42.73315 | 44.15386 | 31450 ft | 461 kts | 348° |
| 2026-05-06 18:36 | 42.76421 | 44.14508 | 32054 ft | 454 kts | 348° |
| 2026-05-06 18:36 | 42.79499 | 44.13651 | 32451 ft | 453 kts | 348° |
| 2026-05-06 18:36 | 42.82590 | 44.12783 | 32739 ft | 454 kts | 347° |
| 2026-05-06 18:37 | 42.85718 | 44.11890 | 32954 ft | 458 kts | 346° |
| 2026-05-06 18:37 | 42.87770 | 44.11295 | 33203 ft | 457 kts | 346° |
| 2026-05-06 18:37 | 42.91909 | 44.10075 | 33819 ft | 453 kts | 346° |
| 2026-05-06 18:37 | 42.94972 | 44.09159 | 34160 ft | 453 kts | 346° |
| 2026-05-06 18:38 | 42.98021 | 44.08239 | 34527 ft | 453 kts | 346° |
| 2026-05-06 18:38 | 43.01125 | 44.07296 | 34856 ft | 454 kts | 346° |
| 2026-05-06 18:38 | 43.04199 | 44.06359 | 35200 ft | 454 kts | 346° |
| 2026-05-06 18:38 | 43.07232 | 44.05431 | 35547 ft | 454 kts | 346° |
| 2026-05-06 18:39 | 43.10331 | 44.04480 | 35905 ft | 453 kts | 346° |
| 2026-05-06 18:39 | 43.13393 | 44.03538 | 36093 ft | 455 kts | 346° |
| 2026-05-06 18:40 | 43.22760 | 44.00637 | 36125 ft | 460 kts | 346° |
| 2026-05-06 18:40 | 43.28962 | 43.98705 | 36106 ft | 459 kts | 346° |
| 2026-05-06 18:41 | 43.35147 | 43.96450 | 36079 ft | 459 kts | 338° |
| 2026-05-06 18:41 | 43.37987 | 43.94575 | 36062 ft | 458 kts | 327° |
| 2026-05-06 18:41 | 43.40526 | 43.91940 | 36109 ft | 456 kts | 316° |
| 2026-05-06 18:42 | 43.44588 | 43.85311 | 36056 ft | 454 kts | 301° |
| 2026-05-06 18:42 | 43.47476 | 43.77626 | 36042 ft | 452 kts | 292° |
| 2026-05-06 18:43 | 43.49860 | 43.69696 | 36039 ft | 451 kts | 288° |
| 2026-05-06 18:43 | 43.50893 | 43.61274 | 36046 ft | 450 kts | 269° |
| 2026-05-06 18:44 | 43.50566 | 43.52701 | 36042 ft | 449 kts | 264° |
| 2026-05-06 18:44 | 43.49937 | 43.44252 | 36071 ft | 447 kts | 263° |
| 2026-05-06 18:45 | 43.49241 | 43.35713 | 36084 ft | 449 kts | 263° |
| 2026-05-06 18:45 | 43.48548 | 43.27256 | 36131 ft | 447 kts | 262° |
| 2026-05-06 18:46 | 43.47859 | 43.18761 | 36157 ft | 445 kts | 262° |
| 2026-05-06 18:46 | 43.47171 | 43.10260 | 36124 ft | 452 kts | 262° |
| 2026-05-06 18:47 | 43.46546 | 43.01793 | 36152 ft | 444 kts | 265° |
| 2026-05-06 18:47 | 43.46607 | 42.93257 | 36137 ft | 446 kts | 273° |
| 2026-05-06 18:48 | 43.47177 | 42.84681 | 36129 ft | 453 kts | 275° |
| 2026-05-06 18:48 | 43.47839 | 42.76120 | 36134 ft | 452 kts | 275° |
| 2026-05-06 18:49 | 43.48473 | 42.67508 | 36136 ft | 451 kts | 274° |
| 2026-05-06 18:49 | 43.48966 | 42.58915 | 36120 ft | 453 kts | 274° |
| 2026-05-06 18:50 | 43.49391 | 42.50284 | 36113 ft | 455 kts | 273° |
| 2026-05-06 18:50 | 43.49803 | 42.41670 | 36117 ft | 453 kts | 273° |
| 2026-05-06 18:51 | 43.50215 | 42.33017 | 36125 ft | 453 kts | 272° |
| 2026-05-06 18:51 | 43.50624 | 42.24384 | 36127 ft | 453 kts | 272° |
| 2026-05-06 18:52 | 43.51029 | 42.15770 | 36119 ft | 454 kts | 272° |
| 2026-05-06 18:52 | 43.51427 | 42.07189 | 36098 ft | 453 kts | 272° |
| 2026-05-06 18:53 | 43.51821 | 41.98557 | 36085 ft | 454 kts | 272° |
| 2026-05-06 18:53 | 43.52221 | 41.89885 | 36077 ft | 457 kts | 274° |
| 2026-05-06 18:54 | 43.53241 | 41.81329 | 36121 ft | 456 kts | 286° |
| 2026-05-06 18:54 | 43.55466 | 41.73166 | 36112 ft | 457 kts | 293° |
| 2026-05-06 18:55 | 43.58093 | 41.65194 | 36112 ft | 458 kts | 295° |
| 2026-05-06 18:55 | 43.60745 | 41.57299 | 36066 ft | 458 kts | 295° |
| 2026-05-06 18:55 | 43.62081 | 41.53279 | 35872 ft | 455 kts | 295° |
| 2026-05-06 18:56 | 43.63377 | 41.49339 | 35695 ft | 452 kts | 295° |
| 2026-05-06 18:56 | 43.64654 | 41.45419 | 35484 ft | 453 kts | 295° |
| 2026-05-06 18:56 | 43.65931 | 41.41473 | 35263 ft | 454 kts | 294° |
| 2026-05-06 18:56 | 43.67219 | 41.37472 | 35062 ft | 455 kts | 295° |
| 2026-05-06 18:57 | 43.68483 | 41.33531 | 34858 ft | 455 kts | 294° |
| 2026-05-06 18:57 | 43.69765 | 41.29514 | 34654 ft | 458 kts | 294° |
| 2026-05-06 18:57 | 43.71036 | 41.25523 | 34425 ft | 457 kts | 294° |
| 2026-05-06 18:57 | 43.72311 | 41.21507 | 34262 ft | 457 kts | 294° |
| 2026-05-06 18:58 | 43.73573 | 41.17525 | 34057 ft | 458 kts | 294° |
| 2026-05-06 18:58 | 43.74860 | 41.13457 | 33875 ft | 459 kts | 294° |
| 2026-05-06 18:58 | 43.76131 | 41.09431 | 33732 ft | 458 kts | 294° |
| 2026-05-06 18:58 | 43.77392 | 41.05429 | 33586 ft | 456 kts | 295° |
| 2026-05-06 18:59 | 43.78654 | 41.01415 | 33322 ft | 455 kts | 295° |
| 2026-05-06 18:59 | 43.79901 | 40.97448 | 32965 ft | 452 kts | 295° |
| 2026-05-06 18:59 | 43.81144 | 40.93486 | 32415 ft | 452 kts | 295° |
| 2026-05-06 18:59 | 43.82384 | 40.89530 | 31822 ft | 451 kts | 295° |
| 2026-05-06 19:00 | 43.83635 | 40.85538 | 31227 ft | 449 kts | 295° |
| 2026-05-06 19:00 | 43.84869 | 40.81591 | 30571 ft | 448 kts | 295° |
| 2026-05-06 19:00 | 43.85935 | 40.77607 | 29994 ft | 445 kts | 289° |
| 2026-05-06 19:00 | 43.86430 | 40.74814 | 29559 ft | 444 kts | 281° |
| 2026-05-06 19:01 | 43.86554 | 40.69220 | 28816 ft | 441 kts | 265° |
| 2026-05-06 19:01 | 43.85978 | 40.65073 | 28251 ft | 437 kts | 256° |
| 2026-05-06 19:01 | 43.85058 | 40.61111 | 27688 ft | 434 kts | 250° |
| 2026-05-06 19:01 | 43.83947 | 40.57244 | 27109 ft | 430 kts | 248° |
| 2026-05-06 19:02 | 43.82757 | 40.53468 | 26538 ft | 426 kts | 247° |
| 2026-05-06 19:02 | 43.81557 | 40.49797 | 25983 ft | 422 kts | 246° |
| 2026-05-06 19:02 | 43.80348 | 40.46143 | 25430 ft | 418 kts | 246° |
| 2026-05-06 19:02 | 43.79143 | 40.42511 | 24867 ft | 414 kts | 246° |
| 2026-05-06 19:03 | 43.77953 | 40.38903 | 24299 ft | 410 kts | 246° |
| 2026-05-06 19:03 | 43.76785 | 40.35340 | 23768 ft | 406 kts | 246° |
| 2026-05-06 19:03 | 43.75636 | 40.31803 | 23230 ft | 402 kts | 246° |
| 2026-05-06 19:03 | 43.74505 | 40.28306 | 22706 ft | 397 kts | 246° |
| 2026-05-06 19:04 | 43.73397 | 40.24876 | 22169 ft | 394 kts | 246° |
| 2026-05-06 19:04 | 43.72293 | 40.21458 | 21641 ft | 390 kts | 246° |
| 2026-05-06 19:04 | 43.71191 | 40.18053 | 21139 ft | 386 kts | 246° |
| 2026-05-06 19:04 | 43.70012 | 40.14787 | 20627 ft | 383 kts | 240° |
| 2026-05-06 19:05 | 43.68444 | 40.11828 | 20158 ft | 377 kts | 226° |
| 2026-05-06 19:05 | 43.66443 | 40.09597 | 20118 ft | 363 kts | 212° |
| 2026-05-06 19:05 | 43.64244 | 40.07894 | 19985 ft | 367 kts | 207° |
| 2026-05-06 19:05 | 43.61983 | 40.06386 | 19648 ft | 363 kts | 205° |
| 2026-05-06 19:06 | 43.59699 | 40.04951 | 19175 ft | 359 kts | 204° |
| 2026-05-06 19:06 | 43.57444 | 40.03564 | 18723 ft | 356 kts | 204° |
| 2026-05-06 19:06 | 43.55178 | 40.02181 | 18226 ft | 354 kts | 204° |
| 2026-05-06 19:06 | 43.52944 | 40.00809 | 17739 ft | 352 kts | 204° |
| 2026-05-06 19:07 | 43.50731 | 39.99440 | 17255 ft | 350 kts | 204° |
| 2026-05-06 19:07 | 43.49256 | 39.98524 | 16929 ft | 349 kts | 204° |
| 2026-05-06 19:07 | 43.46332 | 39.96704 | 16327 ft | 345 kts | 204° |
| 2026-05-06 19:07 | 43.44127 | 39.95433 | 16084 ft | 337 kts | 200° |
| 2026-05-06 19:08 | 43.41909 | 39.94359 | 15478 ft | 340 kts | 198° |
| 2026-05-06 19:08 | 43.39688 | 39.93390 | 15165 ft | 335 kts | 197° |
| 2026-05-06 19:08 | 43.37478 | 39.92452 | 15157 ft | 338 kts | 197° |
| 2026-05-06 19:08 | 43.35241 | 39.91488 | 14976 ft | 341 kts | 198° |
| 2026-05-06 19:09 | 43.32982 | 39.90485 | 14763 ft | 338 kts | 198° |
| 2026-05-06 19:09 | 43.30804 | 39.89503 | 14337 ft | 327 kts | 198° |
| 2026-05-06 19:09 | 43.28710 | 39.88557 | 13929 ft | 314 kts | 198° |
| 2026-05-06 19:09 | 43.26658 | 39.87627 | 13510 ft | 305 kts | 199° |
| 2026-05-06 19:10 | 43.24659 | 39.86713 | 13137 ft | 304 kts | 198° |
| 2026-05-06 19:10 | 43.22676 | 39.85817 | 12631 ft | 304 kts | 198° |
| 2026-05-06 19:10 | 43.20679 | 39.84918 | 12048 ft | 302 kts | 198° |
| 2026-05-06 19:10 | 43.18695 | 39.84024 | 11421 ft | 299 kts | 198° |
| 2026-05-06 19:11 | 43.16735 | 39.83141 | 10802 ft | 296 kts | 198° |
| 2026-05-06 19:11 | 43.14816 | 39.82278 | 10165 ft | 294 kts | 198° |
| 2026-05-06 19:11 | 43.12871 | 39.81404 | 9564 ft | 292 kts | 199° |
| 2026-05-06 19:11 | 43.10973 | 39.80545 | 8931 ft | 289 kts | 199° |
| 2026-05-06 19:12 | 43.09071 | 39.79674 | 8301 ft | 287 kts | 200° |
| 2026-05-06 19:12 | 43.07298 | 39.78523 | 7656 ft | 285 kts | 215° |
| 2026-05-06 19:12 | 43.05925 | 39.76616 | 7152 ft | 278 kts | 241° |
| 2026-05-06 19:12 | 43.05410 | 39.74160 | 6637 ft | 270 kts | 274° |
| 2026-05-06 19:13 | 43.05960 | 39.71772 | 6169 ft | 268 kts | 307° |
| 2026-05-06 19:13 | 43.07377 | 39.70221 | 5685 ft | 267 kts | 340° |
| 2026-05-06 19:13 | 43.09175 | 39.70004 | 5187 ft | 264 kts | 14° |
| 2026-05-06 19:13 | 43.10705 | 39.71186 | 4792 ft | 252 kts | 48° |
| 2026-05-06 19:14 | 43.11763 | 39.73042 | 4402 ft | 243 kts | 47° |
| 2026-05-06 19:14 | 43.13134 | 39.74276 | 4052 ft | 241 kts | 16° |
| 2026-05-06 19:14 | 43.14775 | 39.74768 | 3705 ft | 239 kts | 17° |
| 2026-05-06 19:14 | 43.16335 | 39.75452 | 3300 ft | 234 kts | 13° |
| 2026-05-06 19:15 | 43.17899 | 39.75892 | 2936 ft | 228 kts | 14° |
| 2026-05-06 19:15 | 43.19381 | 39.76584 | 2661 ft | 224 kts | 25° |
| 2026-05-06 19:15 | 43.20743 | 39.77521 | 2413 ft | 218 kts | 28° |
| 2026-05-06 19:15 | 43.22073 | 39.78527 | 2159 ft | 216 kts | 29° |
| 2026-05-06 19:16 | 43.23335 | 39.79480 | 1993 ft | 204 kts | 28° |
| 2026-05-06 19:16 | 43.24527 | 39.80366 | 1985 ft | 188 kts | 28° |
| 2026-05-06 19:16 | 43.25659 | 39.81205 | 1990 ft | 186 kts | 28° |
| 2026-05-06 19:16 | 43.26802 | 39.82055 | 1992 ft | 186 kts | 28° |
| 2026-05-06 19:17 | 43.27942 | 39.82903 | 1994 ft | 189 kts | 28° |
| 2026-05-06 19:17 | 43.29099 | 39.83764 | 1991 ft | 187 kts | 28° |
| 2026-05-06 19:17 | 43.30224 | 39.84601 | 2004 ft | 183 kts | 28° |
| 2026-05-06 19:17 | 43.31348 | 39.85439 | 1992 ft | 181 kts | 28° |
| 2026-05-06 19:18 | 43.32455 | 39.86263 | 1993 ft | 180 kts | 28° |
| 2026-05-06 19:18 | 43.33518 | 39.87056 | 2011 ft | 165 kts | 28° |
| 2026-05-06 19:18 | 43.34537 | 39.87816 | 1929 ft | 163 kts | 28° |
| 2026-05-06 19:18 | 43.35477 | 39.88517 | 1744 ft | 150 kts | 28° |
| 2026-05-06 19:19 | 43.36389 | 39.89198 | 1563 ft | 149 kts | 28° |
| 2026-05-06 19:19 | 43.37298 | 39.89876 | 1366 ft | 149 kts | 28° |
| 2026-05-06 19:19 | 43.38199 | 39.90549 | 1180 ft | 149 kts | 28° |
| 2026-05-06 19:19 | 43.39105 | 39.91226 | 987 ft | 146 kts | 28° |
| 2026-05-06 19:20 | 43.39999 | 39.91898 | 744 ft | 148 kts | 28° |
| 2026-05-06 19:20 | 43.40901 | 39.92561 | 603 ft | 140 kts | 27° |
| 2026-05-06 19:20 | 43.41771 | 39.93183 | 439 ft | 143 kts | 30° |
| 2026-05-06 19:20 | 43.42633 | 39.93868 | 276 ft | 145 kts | 28° |
| 2026-05-06 19:21 | 43.43531 | 39.94536 | 120 ft | 146 kts | 27° |
| 2026-05-06 19:21 | 43.44375 | 39.95171 | 59 ft | 125 kts | 28° |
| 2026-05-06 19:21 | 43.44928 | 39.95579 | 67 ft | 55 kts | 29° |
| 2026-05-06 19:21 | 43.45100 | 39.95708 | 69 ft | 27 kts | 28° |
| 2026-05-06 19:22 | 43.45231 | 39.95814 | 71 ft | 12 kts | 28° |
| 2026-05-06 19:22 | 43.45276 | 39.95770 | 71 ft | 14 kts | 257° |
| 2026-05-06 19:22 | 43.45255 | 39.95719 | 70 ft | 0 kts | 235° |
| 2026-05-06 19:22 | 43.45253 | 39.95716 | 70 ft | 0 kts | 235° |
| 2026-05-06 19:23 | 43.45247 | 39.95703 | 70 ft | 2 kts | 235° |
| 2026-05-06 19:23 | 43.45236 | 39.95681 | 70 ft | 3 kts | 235° |
| 2026-05-06 19:23 | 43.45219 | 39.95647 | 69 ft | 4 kts | 234° |
| 2026-05-06 19:23 | 43.45197 | 39.95605 | 69 ft | 5 kts | 232° |
| 2026-05-06 19:24 | 43.45165 | 39.95568 | 68 ft | 6 kts | 206° |
| 2026-05-06 19:24 | 43.45118 | 39.95539 | 67 ft | 8 kts | 204° |
| 2026-05-06 19:24 | 43.45070 | 39.95496 | 67 ft | 8 kts | 226° |
| 2026-05-06 19:24 | 43.45043 | 39.95422 | 66 ft | 9 kts | 247° |
| 2026-05-06 19:25 | 43.45016 | 39.95335 | 65 ft | 11 kts | 246° |
| 2026-05-06 19:25 | 43.44980 | 39.95233 | 63 ft | 12 kts | 244° |
| 2026-05-06 19:25 | 43.44944 | 39.95118 | 61 ft | 12 kts | 273° |
| 2026-05-06 19:25 | 43.44947 | 39.94994 | 60 ft | 13 kts | 250° |
| 2026-05-06 19:26 | 43.44906 | 39.94877 | 58 ft | 14 kts | 247° |
| 2026-05-06 19:26 | 43.44865 | 39.94751 | 57 ft | 14 kts | 244° |
| 2026-05-06 19:26 | 43.44830 | 39.94649 | 56 ft | 11 kts | 245° |
| 2026-05-06 19:26 | 43.44801 | 39.94560 | 55 ft | 7 kts | 258° |
| 2026-05-06 19:27 | 43.44828 | 39.94510 | 55 ft | 7 kts | 333° |
| 2026-05-06 19:27 | 43.44852 | 39.94495 | 55 ft | 0 kts | 334° |
| 2026-05-06 19:27 | 43.44852 | 39.94494 | 55 ft | 0 kts | 334° |